aviador You're here:

LFMP Decoded Metar

Perpignan in FRANCE
Report Time2018-02-20 13:30:00
UTC Time2018-02-20 13:53:04
Flight Rules vfr VFR
Wind310° at 21 Gusting to 35 kt
W.Decomp.*RWY 31: 21.0 kt HW 0 kt LCW
RWY 33: 19.7 kt HW 7.2 kt LCW
W.Rank310° ranks 1
Current wind is above 310° avg. (14.0)
Visibility9999 m
Phenomena:N/A
Clouds:Few 038 Hf
Broken 084 Hf
Expected CloudBase > 2,400 ft AGL from Temp-Dew spread
Ceiling8,400 ft
Temp13°C (ISA -2)
Dew Point07°C (67% RH)
AAT4.7°C
QNH1010 hPa
Density Alt194 ft
Elevation157 ft
Report Wrong Elevation
Raw Report
LFMP 201330Z AUTO 31021G35KT 9999 FEW038 BKN084 13/07 Q1010
NOSIG=

Extra information for LFMP:More info

Metar Taf Metar & Taf Last 4 Metars F.Rules Stats Wind Profile Meteogram Temp Stats Airport Information Weather charts Add Link Nearby VenuesMetar ALERT Operation Metar Decoded Social comments